Terminal Aerodrome Forecast
Issued by NWS Charleston, WV

Home | Current Version | Previous Version | Text Only | Print | Product List | Glossary On
Versions: 1 2 3 4 5 6 7 8 9 10 11 12 13 14 15 16 17 18 19 20 21 22 23 24 25
000
FTUS41 KRLX 020200 AAA
TAFPKB
TAF AMD
KPKB 020245Z 0203/0224 VRB03KT P6SM FEW080
     FM021300 17007KT P6SM SCT200
     FM021500 20009G15KT P6SM SCT050
     FM021600 20010G18KT P6SM BKN050
     FM021800 21012G22KT P6SM VCTS BKN050CB
     FM022300 21011G20KT P6SM OVC060=

USA.gov is the U.S. government's official web portal to all federal, state and local government web resources and services.